createdAt,value
2023-01-22T03:02:25.600Z,4.85
2023-01-22T03:03:25.836Z,5.57
2023-01-22T03:04:26.027Z,5.43
2023-01-22T03:05:26.226Z,5.24
2023-01-22T03:06:26.538Z,5.65
2023-01-22T03:07:26.771Z,4.84
2023-01-22T03:08:26.929Z,4.21
2023-01-22T03:09:27.179Z,3.98
2023-01-22T03:10:27.487Z,4.28
2023-01-22T03:11:27.666Z,4.34
2023-01-22T03:12:27.973Z,4.17
2023-01-22T03:13:28.153Z,3.94
2023-01-22T03:14:28.390Z,4.33
2023-01-22T03:15:28.695Z,4.83
2023-01-22T03:16:29.046Z,4.70
2023-01-22T03:43:35.813Z,4.18
2023-01-22T03:44:36.041Z,4.32
2023-01-22T03:45:36.371Z,4.21
2023-01-22T03:46:36.604Z,3.96
2023-01-22T03:47:36.909Z,4.17
2023-01-22T03:48:37.276Z,4.12
2023-01-22T03:49:37.412Z,4.32
2023-01-22T03:50:37.719Z,4.27
2023-01-22T03:51:38.011Z,4.39
2023-01-22T03:52:38.309Z,4.31
2023-01-22T03:53:38.495Z,4.31
2023-01-22T03:54:38.800Z,3.95
2023-01-22T03:55:39.017Z,4.06
2023-01-22T03:56:39.305Z,4.07
2023-01-22T03:57:39.556Z,4.07
2023-01-22T03:58:40.517Z,4.08
2023-01-22T03:59:39.496Z,4.13
2023-01-22T04:00:39.495Z,4.10
2023-01-22T04:01:39.470Z,4.20
2023-01-22T04:02:39.517Z,4.39
2023-01-22T04:03:39.511Z,4.42
2023-01-22T04:04:39.406Z,4.34
2023-01-22T04:05:39.383Z,4.48
2023-01-22T04:06:39.367Z,4.71
2023-01-22T04:07:39.345Z,4.67
2023-01-22T04:08:39.321Z,4.62
2023-01-22T04:09:39.306Z,4.89
2023-01-22T04:10:39.294Z,5.05
2023-01-22T04:11:39.290Z,5.07
2023-01-22T04:12:39.264Z,5.03
2023-01-22T04:13:39.246Z,5.24
2023-01-22T04:14:39.247Z,5.15
2023-01-22T04:15:39.248Z,4.69
2023-01-22T04:16:39.272Z,4.71
2023-01-22T04:17:39.445Z,4.86
2023-01-22T04:18:39.762Z,5.05
2023-01-22T04:19:40.083Z,5.00
2023-01-22T04:20:40.246Z,4.95
2023-01-22T04:21:41.004Z,5.06
2023-01-22T04:22:40.514Z,5.05
2023-01-22T04:23:40.539Z,5.08
2023-01-22T04:24:40.558Z,5.28
2023-01-22T04:25:41.505Z,4.99
2023-01-22T04:26:40.577Z,4.63
2023-01-22T04:27:40.581Z,4.49
2023-01-22T04:28:40.600Z,4.91
2023-01-22T04:29:40.627Z,5.02
2023-01-22T04:30:40.731Z,5.35
2023-01-22T04:31:40.745Z,5.78
2023-01-22T04:32:40.678Z,5.40
2023-01-22T04:33:40.694Z,5.57
2023-01-22T04:34:40.721Z,5.71
2023-01-22T04:35:40.828Z,6.08
2023-01-22T04:36:40.750Z,6.60
2023-01-22T04:37:40.777Z,7.05
2023-01-22T04:38:40.761Z,8.04
2023-01-22T04:39:40.781Z,8.24
2023-01-22T04:40:40.786Z,8.63
2023-01-22T04:41:40.789Z,8.99
2023-01-22T04:42:40.791Z,8.95
2023-01-22T04:43:40.799Z,9.10
2023-01-22T04:44:40.808Z,9.31
2023-01-22T04:45:40.825Z,9.76
2023-01-22T04:46:40.838Z,11.09
2023-01-22T04:47:40.837Z,12.47
2023-01-22T04:48:40.852Z,12.62
2023-01-22T04:49:40.872Z,12.87
2023-01-22T04:50:40.890Z,13.64
2023-01-22T04:51:41.001Z,14.05
2023-01-22T04:52:40.931Z,13.56
2023-01-22T04:53:40.955Z,13.12
2023-01-22T04:54:40.970Z,12.29
2023-01-22T04:55:40.993Z,12.09
2023-01-22T04:56:41.030Z,11.99
2023-01-22T04:57:41.028Z,11.93
2023-01-22T04:58:41.032Z,11.51
2023-01-22T04:59:41.056Z,10.11
2023-01-22T05:00:41.079Z,9.72
2023-01-22T05:01:41.145Z,9.37
2023-01-22T05:02:41.160Z,8.86
2023-01-22T05:03:41.110Z,8.98
2023-01-22T05:04:41.144Z,9.33
2023-01-22T05:05:41.157Z,10.13
2023-01-22T05:06:41.159Z,9.41
2023-01-22T05:07:41.241Z,9.10
2023-01-22T05:08:41.192Z,8.95
2023-01-22T05:09:41.198Z,8.67
2023-01-22T05:10:41.203Z,8.08
2023-01-22T05:11:41.506Z,7.49
2023-01-22T05:12:41.243Z,7.26
2023-01-22T05:13:41.261Z,7.02
2023-01-22T05:14:41.276Z,6.99
2023-01-22T05:15:41.332Z,7.34
2023-01-22T05:16:41.333Z,8.17
2023-01-22T05:17:41.327Z,9.33
2023-01-22T05:18:41.333Z,10.36
2023-01-22T05:19:41.344Z,9.94
2023-01-22T05:20:41.355Z,10.10
2023-01-22T05:21:41.359Z,10.21
2023-01-22T05:22:41.370Z,10.36
2023-01-22T05:23:41.459Z,11.17
2023-01-22T05:24:41.397Z,11.14
2023-01-22T05:26:41.439Z,9.64
2023-01-22T05:27:41.448Z,10.20
2023-01-22T05:28:41.554Z,10.49
2023-01-22T05:29:41.797Z,10.73
2023-01-22T05:45:45.530Z,11.23
2023-01-22T05:46:45.782Z,10.81
2023-01-22T05:47:45.952Z,11.96
2023-01-22T05:48:46.189Z,10.05
2023-01-22T05:49:46.413Z,9.84
2023-01-22T05:50:46.620Z,8.95
2023-01-22T05:51:46.903Z,8.77
2023-01-22T05:52:47.042Z,8.66
2023-01-22T05:53:47.425Z,9.85
2023-01-22T05:54:47.576Z,10.23
2023-01-22T05:55:47.823Z,12.04
2023-01-22T05:56:48.017Z,13.63
2023-01-22T05:57:48.246Z,11.00
2023-01-22T05:58:48.451Z,10.09
2023-01-22T05:59:48.701Z,9.43
2023-01-22T06:00:48.903Z,8.71
2023-01-22T06:01:49.136Z,8.29
2023-01-22T06:02:49.487Z,8.28
2023-01-22T06:03:49.665Z,6.89
2023-01-22T06:04:49.895Z,6.17
2023-01-22T06:27:55.573Z,11.33
2023-01-22T06:28:55.839Z,8.36
2023-01-22T06:29:56.003Z,7.62
2023-01-22T06:30:56.392Z,6.84
2023-01-22T06:31:56.637Z,6.69
2023-01-22T06:32:56.748Z,6.81
2023-01-22T06:33:56.972Z,6.06
2023-01-22T06:34:57.201Z,6.28
2023-01-22T06:35:57.509Z,7.31
2023-01-22T06:36:57.704Z,8.59
2023-01-22T06:37:58.018Z,8.69
2023-01-22T06:38:58.282Z,8.63
2023-01-22T06:39:58.524Z,7.67
2023-01-22T06:40:58.775Z,6.94
2023-01-22T06:41:59.027Z,7.09
2023-01-22T06:42:59.268Z,8.20
2023-01-22T06:43:59.539Z,10.34
2023-01-22T06:44:59.716Z,9.65
2023-01-22T06:46:00.037Z,10.02
2023-01-22T06:47:00.202Z,10.53
2023-01-22T06:48:00.426Z,10.53
2023-01-22T06:49:00.713Z,10.31
2023-01-22T06:50:00.954Z,10.54
2023-01-22T06:51:01.218Z,11.71
2023-01-22T06:52:01.482Z,11.46
2023-01-22T06:53:01.667Z,11.20
2023-01-22T06:54:01.937Z,10.10
2023-01-22T07:09:05.610Z,38.92
2023-01-22T07:10:05.759Z,85.25
2023-01-22T07:11:07.876Z,66.82
2023-01-22T07:12:05.993Z,43.93
2023-01-22T07:13:05.990Z,24.62
2023-01-22T07:14:05.977Z,18.14
2023-01-22T07:15:05.982Z,16.07
2023-01-22T07:16:06.014Z,15.02
2023-01-22T07:17:05.989Z,12.09
2023-01-22T07:18:05.964Z,11.72
2023-01-22T07:19:05.958Z,11.53
2023-01-22T07:20:05.954Z,13.65
2023-01-22T07:21:05.945Z,16.35
2023-01-22T07:22:05.923Z,14.89
2023-01-22T07:23:05.930Z,12.71
2023-01-22T07:24:05.923Z,12.60
2023-01-22T07:25:05.993Z,12.55
2023-01-22T07:26:05.915Z,11.22
2023-01-22T07:27:05.906Z,9.98
2023-01-22T07:28:05.919Z,9.31
2023-01-22T07:29:05.907Z,8.56
2023-01-22T07:30:05.902Z,8.87
2023-01-22T07:31:05.957Z,9.86
2023-01-22T07:32:05.880Z,9.97
2023-01-22T07:33:05.887Z,10.78
2023-01-22T07:34:05.934Z,11.88
2023-01-22T07:35:05.937Z,13.27
2023-01-22T07:36:05.884Z,13.63
2023-01-22T07:37:05.860Z,14.42
2023-01-22T07:38:05.856Z,12.10
2023-01-22T07:39:05.847Z,10.44
2023-01-22T07:40:05.843Z,9.91
2023-01-22T07:41:16.999Z,11.98
2023-01-22T07:42:06.816Z,11.99
2023-01-22T07:43:05.802Z,12.00
2023-01-22T07:44:05.799Z,11.90
2023-01-22T07:45:05.784Z,13.34
2023-01-22T07:46:05.770Z,14.92
2023-01-22T07:47:05.747Z,13.85
2023-01-22T07:48:05.728Z,12.59
2023-01-22T07:49:05.712Z,13.16
2023-01-22T07:50:05.693Z,11.14
2023-01-22T07:51:05.724Z,7.06
2023-01-22T07:52:05.654Z,6.01
2023-01-22T07:53:05.639Z,5.68
2023-01-22T07:54:05.626Z,5.41
2023-01-22T07:55:05.597Z,5.79
2023-01-22T07:56:05.576Z,5.80
2023-01-22T07:57:05.643Z,5.43
2023-01-22T07:58:05.569Z,5.19
2023-01-22T07:59:05.556Z,4.75
2023-01-22T08:00:05.527Z,5.10
2023-01-22T08:01:05.595Z,4.96
2023-01-22T09:25:05.567Z,1.96
2023-01-22T09:45:05.518Z,2.81
2023-01-22T09:46:05.603Z,2.80
2023-01-22T09:47:05.563Z,2.73
2023-01-22T09:48:05.595Z,2.43
2023-01-22T09:49:05.708Z,2.47
2023-01-22T09:50:05.664Z,2.49
2023-01-22T09:51:05.700Z,2.30
2023-01-22T09:52:05.780Z,2.42
2023-01-22T09:53:05.683Z,2.35
2023-01-22T09:54:05.678Z,2.30
2023-01-22T09:55:05.709Z,2.41
2023-01-22T09:56:05.762Z,2.54
2023-01-22T09:57:05.786Z,2.71
2023-01-22T09:58:05.840Z,2.77
2023-01-22T09:59:05.862Z,2.96
2023-01-22T10:00:05.890Z,2.89
2023-01-22T10:01:05.938Z,3.23
2023-01-22T10:02:05.981Z,2.99
2023-01-22T10:03:05.940Z,2.73
2023-01-22T10:04:05.954Z,2.32
2023-01-22T10:05:06.045Z,1.97
2023-01-22T10:06:06.000Z,1.84
2023-01-22T10:07:05.989Z,1.93
2023-01-22T10:08:06.005Z,2.06
2023-01-22T10:09:06.019Z,2.12
2023-01-22T10:10:06.034Z,2.15
2023-01-22T10:11:06.049Z,2.02
2023-01-22T10:12:06.064Z,2.23
2023-01-22T10:13:06.095Z,2.26
2023-01-22T10:14:06.085Z,2.01
2023-01-22T10:15:06.093Z,2.32
2023-01-22T10:16:06.119Z,2.50
2023-01-22T10:17:06.130Z,2.81
2023-01-22T10:18:06.145Z,2.63
2023-01-22T10:19:06.166Z,2.70
2023-01-22T10:20:06.189Z,2.56
2023-01-22T10:21:06.302Z,2.76
2023-01-22T10:22:06.272Z,3.08
2023-01-22T10:23:06.305Z,3.13
2023-01-22T10:24:06.330Z,2.85
2023-01-22T10:25:06.359Z,3.03
2023-01-22T10:26:06.395Z,3.49
2023-01-22T10:27:06.415Z,3.42
2023-01-22T10:28:06.448Z,2.88
2023-01-22T10:29:06.483Z,2.52
2023-01-22T10:30:06.504Z,2.69
2023-01-22T10:31:06.619Z,2.57
2023-01-22T10:32:06.588Z,2.65
2023-01-22T10:33:06.570Z,2.32
2023-01-22T10:34:06.592Z,2.19
2023-01-22T10:35:06.612Z,2.68
2023-01-22T10:36:06.613Z,3.16
2023-01-22T10:37:06.695Z,3.11
2023-01-22T10:38:06.640Z,2.65
2023-01-22T10:39:06.643Z,2.17
2023-01-22T10:40:06.691Z,3.67
2023-01-22T10:41:06.715Z,4.18
2023-01-22T10:42:06.738Z,2.77
2023-01-22T10:43:06.743Z,2.34
2023-01-22T10:44:06.763Z,2.12
2023-01-22T10:45:06.797Z,2.10
2023-01-22T10:46:06.904Z,2.48
2023-01-22T10:47:06.849Z,2.51
2023-01-22T10:48:06.875Z,1.80
2023-01-22T10:49:06.889Z,2.14
2023-01-22T10:50:06.922Z,2.66
2023-01-22T10:51:06.924Z,2.67
2023-01-22T10:52:06.931Z,2.76
2023-01-22T10:53:07.015Z,3.25
2023-01-22T10:54:06.952Z,3.40
2023-01-22T10:55:06.962Z,3.40
2023-01-22T10:56:06.956Z,3.47
2023-01-22T10:57:06.949Z,3.76
2023-01-22T10:58:06.928Z,3.71
2023-01-22T10:59:06.915Z,3.73
2023-01-22T11:00:06.917Z,3.49
2023-01-22T11:01:06.962Z,2.84
2023-01-22T11:02:06.920Z,3.02
2023-01-22T11:03:06.883Z,3.16
2023-01-22T11:04:06.878Z,3.51
2023-01-22T11:05:06.870Z,3.48
2023-01-22T11:06:06.869Z,2.91
2023-01-22T11:07:06.865Z,2.93
2023-01-22T11:08:06.868Z,2.79
2023-01-22T11:09:06.929Z,2.50
2023-01-22T11:10:06.841Z,2.65
2023-01-22T11:11:06.824Z,3.26
2023-01-22T11:12:06.797Z,4.10
2023-01-22T11:13:06.780Z,4.15
2023-01-22T11:14:06.769Z,3.30
2023-01-22T11:15:06.776Z,2.98
2023-01-22T11:16:06.762Z,3.56
2023-01-22T11:17:06.726Z,3.14
2023-01-22T11:18:06.696Z,3.62
2023-01-22T11:19:06.680Z,2.67
2023-01-22T11:20:06.678Z,1.77
2023-01-22T11:21:06.673Z,1.71
2023-01-22T11:22:06.693Z,1.38
2023-01-22T11:23:06.696Z,1.39
2023-01-22T11:24:06.704Z,1.53
2023-01-22T11:25:08.148Z,1.57
2023-01-22T11:27:06.660Z,1.76
2023-01-22T12:06:15.729Z,1.06
2023-01-22T12:07:15.901Z,1.36
2023-01-22T12:08:16.094Z,1.35
2023-01-22T12:09:16.400Z,0.84
2023-01-22T12:10:16.875Z,1.09
2023-01-22T12:11:16.888Z,1.38
2023-01-22T12:12:17.104Z,1.17
2023-01-22T12:13:17.338Z,1.35
2023-01-22T12:14:17.544Z,1.52
2023-01-22T12:15:17.743Z,1.42
2023-01-22T12:16:18.123Z,1.38
2023-01-22T12:17:18.225Z,1.18
2023-01-22T12:18:18.404Z,0.97
2023-01-22T12:19:18.577Z,0.98
2023-01-22T12:20:19.211Z,1.31
2023-01-22T12:21:18.864Z,1.09
2023-01-22T12:22:18.860Z,1.26
2023-01-22T12:23:18.842Z,1.27
2023-01-22T12:24:18.830Z,1.42
2023-01-22T12:25:18.807Z,1.21
2023-01-22T12:26:18.783Z,1.31
2023-01-22T12:27:18.874Z,1.41
2023-01-22T12:28:18.766Z,1.64
2023-01-22T12:29:18.894Z,1.63
2023-01-22T12:30:19.390Z,1.53
2023-01-22T12:31:19.182Z,1.47
2023-01-22T12:32:19.086Z,1.58
2023-01-22T12:33:19.047Z,1.72
2023-01-22T12:34:19.054Z,1.68
2023-01-22T12:35:19.036Z,1.39
2023-01-22T12:36:19.032Z,1.67
2023-01-22T12:37:19.015Z,1.55
2023-01-22T12:38:19.079Z,1.36
2023-01-22T12:39:19.251Z,1.72
2023-01-22T12:40:19.749Z,2.19
2023-01-22T12:41:19.793Z,1.80
2023-01-22T12:42:19.968Z,1.65
2023-01-22T12:43:20.344Z,1.76
2023-01-22T12:44:20.455Z,1.47
2023-01-22T12:45:20.730Z,1.63
2023-01-22T12:46:20.944Z,2.01
2023-01-22T12:47:21.136Z,1.96
2023-01-22T12:48:21.423Z,1.75
2023-01-22T12:49:21.701Z,1.73
2023-01-22T12:50:22.226Z,1.76
2023-01-22T12:51:21.974Z,1.44
2023-01-22T12:52:21.883Z,1.71
2023-01-22T12:53:21.855Z,1.95
2023-01-22T12:54:21.846Z,2.15
2023-01-22T12:55:21.793Z,1.72
2023-01-22T12:56:21.735Z,1.13
2023-01-22T12:57:21.699Z,1.15
2023-01-22T12:58:22.630Z,1.23
2023-01-22T12:59:21.594Z,1.23
2023-01-22T13:00:21.551Z,1.29
2023-01-22T13:01:21.499Z,1.12
2023-01-22T13:02:21.477Z,1.10
2023-01-22T13:03:30.917Z,1.24
2023-01-22T13:04:22.325Z,1.25
2023-01-22T13:05:22.048Z,1.27
2023-01-22T13:06:21.215Z,1.00
2023-01-22T13:07:21.156Z,0.72
2023-01-22T13:08:21.140Z,0.71
2023-01-22T13:09:21.034Z,0.72
2023-01-22T13:10:21.512Z,0.83
2023-01-22T13:11:20.914Z,0.76
2023-01-22T13:12:20.862Z,0.77
2023-01-22T13:13:20.792Z,0.70
2023-01-22T13:14:20.823Z,0.79
2023-01-22T13:15:20.681Z,0.83
2023-01-22T13:16:20.703Z,0.78
2023-01-22T13:17:20.564Z,0.93
2023-01-22T13:18:20.502Z,0.92
2023-01-22T13:19:20.455Z,1.51
2023-01-22T13:20:20.840Z,1.73
2023-01-22T13:21:20.320Z,1.52
2023-01-22T13:22:20.260Z,1.59
2023-01-22T13:23:21.629Z,1.53
2023-01-22T13:24:20.141Z,1.51
2023-01-22T13:25:20.270Z,1.76
2023-01-22T13:26:20.034Z,1.88
2023-01-22T13:27:19.976Z,1.65
2023-01-22T13:28:19.928Z,1.58
2023-01-22T13:29:19.881Z,1.40
2023-01-22T13:30:20.159Z,1.39
2023-01-22T13:31:19.935Z,1.32
2023-01-22T13:32:19.698Z,1.01
2023-01-22T13:33:19.643Z,1.11
2023-01-22T13:34:19.615Z,1.16
2023-01-22T13:35:20.085Z,1.19
2023-01-22T13:36:19.489Z,1.05
2023-01-22T13:37:19.436Z,0.91
2023-01-22T13:38:19.379Z,0.76
2023-01-22T13:39:19.329Z,0.88
2023-01-22T13:40:19.474Z,1.06
2023-01-22T13:41:19.220Z,1.30
2023-01-22T13:42:19.207Z,1.40
2023-01-22T13:43:19.303Z,1.26
2023-01-22T13:44:19.533Z,1.16
2023-01-22T13:45:19.637Z,1.18
2023-01-22T13:46:19.942Z,1.07
2023-01-22T13:47:20.047Z,1.16
2023-01-22T13:48:20.300Z,1.24
2023-01-22T13:49:20.593Z,1.14
2023-01-22T13:50:21.133Z,0.87
2023-01-22T13:51:20.819Z,0.83
2023-01-22T13:52:20.651Z,0.85
2023-01-22T13:53:20.601Z,0.84
2023-01-22T13:54:20.553Z,0.86
2023-01-22T13:55:20.520Z,0.98
2023-01-22T13:56:20.461Z,1.22
2023-01-22T13:57:20.411Z,1.10
2023-01-22T13:58:20.353Z,1.20
2023-01-22T13:59:20.322Z,1.24
2023-01-22T14:00:20.538Z,1.15
2023-01-22T14:01:20.405Z,0.98
2023-01-22T14:02:20.800Z,1.08
2023-01-22T14:03:20.959Z,0.92
2023-01-22T14:04:21.138Z,0.90
2023-01-22T14:05:21.392Z,0.91
2023-01-22T14:06:21.632Z,0.79
2023-01-22T14:07:21.920Z,0.59
2023-01-22T14:08:22.189Z,0.63
2023-01-22T14:09:22.342Z,0.70
2023-01-22T14:10:22.707Z,0.57
2023-01-22T14:11:22.855Z,0.50
2023-01-22T14:12:23.136Z,0.58
2023-01-22T14:13:23.411Z,0.84
2023-01-22T14:14:23.582Z,0.99
2023-01-22T14:15:23.852Z,1.28
2023-01-22T14:16:24.101Z,1.31
2023-01-22T14:17:24.453Z,1.19
2023-01-22T14:18:24.583Z,0.64
2023-01-22T14:22:25.571Z,0.99
2023-01-22T14:23:25.728Z,0.94
2023-01-22T14:24:26.009Z,0.95
2023-01-22T14:25:26.237Z,0.81
2023-01-22T14:26:26.560Z,0.74
2023-01-22T14:27:26.728Z,0.50
2023-01-22T14:28:26.876Z,0.64
2023-01-22T14:29:27.261Z,0.51
2023-01-22T14:30:27.361Z,0.50
2023-01-22T14:31:27.704Z,0.60
2023-01-22T14:32:27.946Z,0.96
2023-01-22T14:33:28.092Z,1.78
2023-01-22T15:10:29.621Z,0.98
2023-01-22T15:11:29.598Z,0.84
2023-01-22T15:12:29.547Z,0.81
2023-01-22T15:13:29.482Z,0.68
2023-01-22T15:14:29.424Z,0.57
2023-01-22T15:15:29.388Z,0.62
2023-01-22T15:16:29.394Z,0.71
2023-01-22T15:17:29.276Z,0.81
2023-01-22T15:18:29.346Z,1.12
2023-01-22T15:19:38.967Z,1.52
2023-01-22T15:21:29.425Z,1.61
2023-01-22T15:22:29.357Z,1.93
2023-01-22T15:23:29.295Z,2.38
2023-01-22T15:24:29.234Z,3.25
2023-01-22T15:25:29.175Z,2.55
2023-01-22T15:26:29.125Z,2.04
2023-01-22T15:27:29.085Z,2.12
2023-01-22T15:28:29.021Z,2.09
2023-01-22T15:29:28.948Z,1.85
2023-01-22T15:30:28.970Z,1.85
2023-01-22T15:31:28.942Z,2.10
2023-01-22T15:32:28.793Z,2.08
2023-01-22T15:33:28.743Z,2.06
2023-01-22T15:34:28.697Z,1.88
2023-01-22T15:35:28.754Z,1.80
2023-01-22T15:36:28.634Z,1.75
2023-01-22T15:37:28.591Z,1.99
2023-01-22T15:38:28.568Z,2.40
2023-01-22T15:39:28.536Z,2.49
2023-01-22T15:40:28.522Z,2.44
2023-01-22T15:41:28.597Z,2.98
2023-01-22T15:42:28.788Z,3.06
2023-01-22T15:43:29.977Z,3.32
2023-01-22T15:44:29.548Z,3.10
2023-01-22T15:45:29.007Z,2.63
2023-01-22T15:46:30.493Z,2.63
2023-01-22T15:47:28.909Z,2.17
2023-01-22T15:48:28.828Z,2.18
2023-01-22T15:49:28.812Z,2.00
2023-01-22T15:50:28.763Z,2.33
2023-01-22T15:51:28.787Z,4.65
2023-01-22T15:52:28.659Z,10.57
2023-01-22T15:53:29.565Z,9.21
2023-01-22T15:54:28.588Z,5.25
2023-01-22T15:55:28.553Z,4.16
2023-01-22T15:56:28.515Z,3.69
2023-01-22T15:57:28.981Z,3.28
2023-01-22T15:58:28.446Z,2.73
2023-01-22T15:59:28.430Z,2.99
2023-01-22T16:00:29.067Z,3.90
2023-01-22T16:01:28.457Z,5.89
2023-01-22T16:02:29.007Z,7.57
2023-01-22T16:03:28.349Z,9.06
2023-01-22T16:04:28.358Z,14.21
2023-01-22T16:05:28.989Z,15.28
2023-01-22T16:06:28.983Z,9.07
2023-01-22T16:07:28.418Z,6.62
2023-01-22T16:08:28.340Z,5.82
2023-01-22T16:09:28.352Z,5.61
2023-01-22T16:10:28.331Z,7.12
2023-01-22T16:11:28.325Z,8.33
2023-01-22T16:12:28.982Z,7.29
2023-01-22T16:13:28.543Z,5.77
2023-01-22T16:14:28.374Z,6.22
2023-01-22T16:15:28.330Z,5.26
2023-01-22T16:16:28.369Z,5.36
2023-01-22T16:17:28.296Z,5.33
2023-01-22T16:19:28.227Z,5.61
2023-01-22T16:21:28.150Z,4.51
2023-01-22T16:22:28.089Z,3.75
2023-01-22T16:23:28.148Z,3.32
2023-01-22T16:24:28.982Z,3.01
2023-01-22T16:25:27.996Z,3.03
2023-01-22T16:26:27.919Z,2.62
2023-01-22T16:27:27.857Z,2.32
2023-01-22T16:28:27.812Z,2.47
2023-01-22T16:29:27.766Z,2.34
2023-01-22T16:30:27.746Z,2.73
2023-01-22T16:31:27.851Z,2.52
2023-01-22T16:32:27.852Z,2.45
2023-01-22T16:33:27.602Z,2.29
2023-01-22T16:34:27.545Z,2.34
2023-01-22T16:35:28.085Z,2.85
2023-01-22T16:36:27.470Z,2.34
2023-01-22T16:37:28.070Z,2.56
2023-01-22T16:38:27.364Z,2.47
2023-01-22T16:39:27.415Z,2.93
2023-01-22T16:40:27.257Z,3.04
2023-01-22T16:41:27.217Z,3.69
2023-01-22T16:42:27.980Z,3.55
2023-01-22T16:43:27.161Z,3.36
2023-01-22T16:44:27.096Z,3.04
2023-01-22T16:45:27.983Z,2.91
2023-01-22T16:46:27.031Z,2.02
2023-01-22T16:47:26.957Z,1.80
2023-01-22T16:48:27.912Z,1.80
2023-01-22T16:49:28.489Z,1.82
2023-01-22T16:50:27.491Z,1.81
2023-01-22T16:51:26.827Z,1.92
2023-01-22T16:52:26.733Z,1.82
2023-01-22T16:53:27.490Z,1.60
2023-01-22T16:54:26.685Z,1.85
2023-01-22T16:55:26.676Z,2.26
2023-01-22T16:56:26.538Z,2.70
2023-01-22T16:57:26.488Z,2.66
2023-01-22T16:58:26.456Z,2.85
2023-01-22T16:59:28.075Z,2.86
2023-01-22T17:00:26.408Z,2.91
2023-01-22T17:01:26.365Z,2.96
2023-01-22T17:02:26.283Z,2.72
2023-01-22T17:03:26.336Z,2.93
2023-01-22T17:04:26.149Z,2.57
2023-01-22T17:05:27.125Z,2.16
2023-01-22T17:06:26.304Z,1.79
2023-01-22T17:07:33.539Z,1.93
2023-01-22T17:08:27.025Z,1.94
2023-01-22T17:09:25.945Z,1.94
2023-01-22T17:10:25.917Z,1.97
2023-01-22T17:11:25.936Z,2.24
2023-01-22T17:12:25.838Z,2.40
2023-01-22T17:13:26.484Z,2.72
2023-01-22T17:14:25.719Z,2.75
2023-01-22T17:15:25.692Z,2.87
2023-01-22T17:16:25.653Z,2.82
2023-01-22T17:17:25.649Z,2.87
2023-01-22T17:18:25.551Z,2.70
2023-01-22T17:19:26.525Z,2.50
2023-01-22T17:33:26.070Z,4.23
2023-01-22T18:06:25.689Z,1.84
2023-01-22T18:13:27.393Z,2.10
2023-01-22T18:14:27.718Z,2.42
2023-01-22T18:15:28.573Z,2.66
2023-01-22T18:16:28.496Z,3.47
2023-01-22T18:17:27.812Z,3.63
2023-01-22T18:18:27.853Z,2.62
2023-01-22T18:19:27.880Z,2.14
2023-01-22T18:20:28.035Z,2.12
2023-01-22T18:21:28.329Z,2.18
2023-01-22T18:22:28.594Z,2.44
2023-01-22T18:23:28.798Z,2.67
2023-01-22T18:24:29.149Z,2.40
2023-01-22T18:26:30.493Z,2.44
2023-01-22T18:27:29.576Z,2.01
2023-01-22T18:29:30.078Z,1.20
2023-01-22T18:30:31.534Z,1.21
2023-01-22T18:31:29.659Z,1.24
2023-01-22T18:32:29.505Z,1.29
2023-01-22T18:33:29.466Z,1.44
2023-01-22T18:34:29.453Z,1.70
2023-01-22T18:35:29.453Z,1.64
2023-01-22T18:36:29.431Z,1.73
2023-01-22T18:37:29.426Z,1.98
2023-01-22T18:38:29.405Z,1.99
2023-01-22T18:39:29.398Z,2.25
2023-01-22T18:40:29.425Z,2.18
2023-01-22T18:41:29.401Z,2.14
2023-01-22T18:42:29.401Z,2.12
2023-01-22T18:43:29.365Z,1.96
2023-01-22T18:44:29.407Z,2.14
2023-01-22T18:45:29.351Z,2.05
2023-01-22T18:46:29.454Z,2.00
2023-01-22T18:47:29.442Z,2.08
2023-01-22T18:48:29.663Z,2.13
2023-01-22T18:49:29.871Z,2.32
2023-01-22T18:50:30.124Z,2.74
2023-01-22T18:51:30.349Z,2.54
2023-01-22T18:52:30.574Z,2.49
2023-01-22T18:53:30.801Z,2.50
2023-01-22T18:54:31.006Z,1.72
2023-01-22T18:55:31.247Z,1.59
2023-01-22T18:56:31.454Z,2.20
2023-01-22T18:57:31.669Z,2.16
2023-01-22T18:58:31.887Z,2.29
2023-01-22T18:59:32.214Z,2.42
2023-01-22T19:00:32.417Z,2.28
2023-01-22T19:01:32.799Z,1.94
2023-01-22T19:02:32.945Z,1.80
2023-01-22T19:03:33.130Z,2.29
2023-01-22T19:04:34.073Z,2.61
2023-01-22T19:05:33.350Z,2.41
2023-01-22T19:06:35.179Z,2.19
2023-01-22T19:07:33.313Z,2.05
2023-01-22T19:08:33.321Z,2.22
2023-01-22T19:09:33.208Z,2.26
2023-01-22T19:10:33.193Z,2.19
2023-01-22T19:11:33.137Z,2.13
2023-01-22T19:12:33.108Z,2.34
2023-01-22T19:13:33.046Z,2.11
2023-01-22T19:14:33.016Z,2.19
2023-01-22T19:15:33.013Z,2.04
2023-01-22T19:16:33.023Z,2.13
2023-01-22T19:17:32.985Z,2.19
2023-01-22T19:18:32.872Z,1.97
2023-01-22T19:19:32.845Z,1.79
2023-01-22T19:20:32.807Z,1.72
2023-01-22T19:21:32.814Z,1.79
2023-01-22T19:22:32.782Z,1.69
2023-01-22T19:23:32.723Z,1.81
2023-01-22T19:24:32.684Z,1.89
2023-01-22T19:25:32.654Z,1.79
2023-01-22T19:26:32.670Z,1.81
2023-01-22T19:27:32.604Z,2.17
2023-01-22T19:28:32.575Z,2.12
2023-01-22T19:29:33.079Z,2.11
2023-01-22T19:30:32.506Z,2.13
2023-01-22T19:31:32.580Z,2.25
2023-01-22T19:32:32.444Z,1.99
2023-01-22T19:33:32.485Z,2.01
2023-01-22T19:34:32.363Z,2.23
2023-01-22T19:35:32.314Z,2.07
2023-01-22T19:36:32.289Z,1.72
2023-01-22T19:37:32.246Z,1.45
2023-01-22T19:38:33.045Z,1.53
2023-01-22T19:39:32.188Z,1.53
2023-01-22T19:40:32.149Z,1.39
2023-01-22T19:41:33.009Z,1.81
2023-01-22T19:42:33.001Z,1.93
2023-01-22T19:43:32.073Z,2.08
2023-01-22T19:44:33.015Z,2.06
2023-01-22T19:45:32.128Z,2.12
2023-01-22T19:46:32.163Z,1.81
2023-01-22T19:47:33.006Z,2.11
2023-01-22T19:48:32.178Z,2.25
2023-01-22T19:49:32.299Z,2.18
2023-01-22T19:50:33.502Z,2.19
2023-01-22T19:51:32.238Z,2.27
2023-01-22T19:52:32.272Z,2.19
2023-01-22T19:53:32.302Z,2.51
2023-01-22T19:54:32.331Z,2.70
2023-01-22T19:55:32.393Z,2.33
2023-01-22T19:56:32.391Z,2.51
2023-01-22T19:57:32.421Z,2.07
2023-01-22T19:58:34.508Z,1.96
2023-01-22T19:59:32.445Z,2.41
2023-01-22T20:00:33.125Z,2.57
2023-01-22T20:01:33.104Z,2.22
2023-01-22T20:02:32.482Z,2.18
2023-01-22T20:03:32.467Z,2.14
2023-01-22T20:04:32.654Z,2.22
2023-01-22T20:05:32.930Z,2.28
2023-01-22T20:06:33.142Z,1.85
2023-01-22T20:07:33.361Z,1.83
2023-01-22T20:08:33.600Z,2.01
2023-01-22T20:09:33.838Z,2.05
2023-01-22T20:10:34.093Z,1.86
2023-01-22T20:11:34.369Z,1.85
2023-01-22T20:12:34.636Z,2.37
2023-01-22T20:13:34.920Z,1.91
2023-01-22T20:14:35.200Z,1.98
2023-01-22T20:15:35.400Z,2.09
2023-01-22T20:16:35.759Z,2.02
2023-01-22T20:17:35.960Z,1.90
2023-01-22T20:18:36.200Z,2.15
2023-01-22T20:19:38.159Z,1.67
2023-01-22T20:20:37.167Z,1.95
2023-01-22T20:21:36.421Z,1.85
2023-01-22T20:22:36.493Z,1.64
2023-01-22T20:23:36.481Z,1.65
2023-01-22T20:24:36.522Z,2.39
2023-01-22T20:25:36.550Z,2.51
2023-01-22T20:26:36.547Z,2.38
2023-01-22T20:27:36.565Z,2.36
2023-01-22T20:28:36.605Z,2.17
2023-01-22T20:29:36.625Z,2.16
2023-01-22T20:30:36.693Z,2.28
2023-01-22T20:31:36.720Z,2.30
2023-01-22T20:32:36.637Z,2.59
2023-01-22T20:33:36.639Z,2.74
2023-01-22T20:34:36.639Z,3.07
2023-01-22T20:35:36.630Z,3.62
2023-01-22T20:36:36.712Z,2.96
2023-01-22T20:37:36.640Z,2.74
2023-01-22T20:38:36.620Z,2.23
2023-01-22T20:39:36.616Z,2.75
2023-01-22T20:40:36.609Z,3.45
2023-01-22T20:41:36.600Z,2.81
2023-01-22T20:42:36.588Z,3.62
2023-01-22T20:43:36.591Z,3.11
2023-01-22T20:44:37.094Z,2.81
2023-01-22T20:45:37.522Z,2.78
2023-01-22T20:46:37.084Z,3.07
2023-01-22T20:47:36.572Z,3.20
2023-01-22T20:48:37.549Z,2.88
2023-01-22T20:49:36.606Z,2.87
2023-01-22T20:50:37.587Z,3.10
2023-01-22T20:51:37.552Z,3.44
2023-01-22T20:52:36.860Z,3.43
2023-01-22T20:53:36.785Z,3.65
2023-01-22T20:54:42.797Z,3.54
2023-01-22T20:55:37.760Z,3.56
2023-01-22T20:56:36.738Z,3.56
2023-01-22T20:57:36.725Z,3.54
2023-01-22T20:58:36.701Z,2.97
2023-01-22T20:59:36.664Z,2.79
2023-01-22T21:00:36.681Z,2.67
2023-01-22T21:01:36.604Z,2.67
2023-01-22T21:02:36.603Z,3.08
2023-01-22T21:03:36.580Z,3.03
2023-01-22T21:04:36.658Z,3.22
2023-01-22T21:05:36.649Z,2.87
2023-01-22T21:06:36.679Z,2.51
2023-01-22T21:07:36.718Z,2.38
2023-01-22T21:08:36.830Z,2.54
2023-01-22T21:09:36.770Z,2.83
2023-01-22T21:10:36.807Z,2.80
2023-01-22T21:11:36.828Z,2.68
2023-01-22T21:12:36.861Z,2.55
2023-01-22T21:13:36.911Z,2.51
2023-01-22T21:14:36.929Z,2.72
2023-01-22T21:15:36.943Z,2.76
2023-01-22T21:16:37.032Z,2.37
2023-01-22T21:17:37.010Z,2.41
2023-01-22T21:18:37.011Z,2.67
2023-01-22T21:19:37.004Z,2.14
2023-01-22T21:20:36.996Z,2.23
2023-01-22T21:21:36.987Z,2.24
2023-01-22T21:22:36.963Z,2.18
2023-01-22T21:23:36.949Z,2.07
2023-01-22T21:24:37.020Z,2.06
2023-01-22T21:25:36.913Z,2.05
2023-01-22T21:26:36.886Z,1.87
2023-01-22T21:27:36.873Z,1.73
2023-01-22T21:28:36.886Z,1.68
2023-01-22T21:29:36.900Z,1.69
2023-01-22T21:30:36.938Z,1.48
2023-01-22T21:31:37.009Z,1.72
2023-01-22T21:32:36.934Z,1.52